createdAt,value
2023-05-23T00:00:36.998Z,59.70
2023-05-23T00:02:13.298Z,59.90
2023-05-23T00:03:47.299Z,59.60
2023-05-23T00:05:20.808Z,59.60
2023-05-23T00:06:53.475Z,59.80
2023-05-23T00:08:27.041Z,59.90
2023-05-23T00:09:59.281Z,60.20
2023-05-23T00:11:32.436Z,60.20
2023-05-23T00:13:09.291Z,60.20
2023-05-23T00:14:43.745Z,60.30
2023-05-23T00:16:17.211Z,60.30
2023-05-23T00:17:49.465Z,60.40
2023-05-23T00:19:22.736Z,60.40
2023-05-23T00:20:57.385Z,60.40
2023-05-23T00:22:29.747Z,60.50
2023-05-23T00:24:04.552Z,60.60
2023-05-23T00:25:37.806Z,60.60
2023-05-23T00:27:11.613Z,60.80
2023-05-23T00:28:43.990Z,60.80
2023-05-23T00:30:18.726Z,60.90
2023-05-23T00:31:51.910Z,60.60
2023-05-23T00:33:25.620Z,60.50
2023-05-23T00:34:58.811Z,60.40
2023-05-23T00:36:36.829Z,60.30
2023-05-23T00:38:11.419Z,60.40
2023-05-23T00:39:44.629Z,60.50
2023-05-23T00:41:19.550Z,60.60
2023-05-23T00:42:52.227Z,60.50
2023-05-23T00:44:25.567Z,60.50
2023-05-23T00:46:01.395Z,60.60
2023-05-23T00:47:34.075Z,60.70
2023-05-23T00:49:07.528Z,60.80
2023-05-23T00:50:40.130Z,60.90
2023-05-23T00:52:13.448Z,60.90
2023-05-23T00:53:46.674Z,60.80
2023-05-23T00:55:19.849Z,60.60
2023-05-23T00:56:54.565Z,60.50
2023-05-23T00:58:27.805Z,60.50
2023-05-23T01:00:01.651Z,60.50
2023-05-23T01:01:37.827Z,60.40
2023-05-23T01:03:17.822Z,60.40
2023-05-23T01:04:54.329Z,60.40
2023-05-23T01:06:30.626Z,60.20
2023-05-23T01:08:03.832Z,60.10
2023-05-23T01:09:37.796Z,60.00
2023-05-23T01:11:36.205Z,60.10
2023-05-23T01:13:22.943Z,61.00
2023-05-23T01:15:06.404Z,60.00
2023-05-23T01:16:53.790Z,59.90
2023-05-23T01:18:38.260Z,59.80
2023-05-23T01:20:14.173Z,59.50
2023-05-23T01:21:55.010Z,59.50
2023-05-23T01:23:59.184Z,59.50
2023-05-23T01:25:50.210Z,59.50
2023-05-23T01:27:39.930Z,59.50
2023-05-23T01:29:20.090Z,59.50
2023-05-23T01:30:57.717Z,59.50
2023-05-23T01:32:33.436Z,59.30
2023-05-23T01:34:09.033Z,59.40
2023-05-23T01:35:44.228Z,59.30
2023-05-23T01:37:19.557Z,59.10
2023-05-23T01:38:51.903Z,59.10
2023-05-23T01:40:26.728Z,59.00
2023-05-23T01:41:58.915Z,58.90
2023-05-23T01:43:34.332Z,58.90
2023-05-23T01:45:10.057Z,58.90
2023-05-23T01:46:44.825Z,58.80
2023-05-23T01:48:19.170Z,58.70
2023-05-23T01:49:52.956Z,58.80
2023-05-23T01:51:27.079Z,58.70
2023-05-23T01:53:01.592Z,59.10
2023-05-23T01:54:35.308Z,58.30
2023-05-23T01:56:09.395Z,58.40
2023-05-23T01:57:42.282Z,58.40
2023-05-23T01:59:17.255Z,58.40
2023-05-23T02:00:49.841Z,58.40
2023-05-23T02:02:23.504Z,58.30
2023-05-23T02:04:00.684Z,58.40
2023-05-23T02:05:33.976Z,58.50
2023-05-23T02:07:08.308Z,58.40
2023-05-23T02:08:40.678Z,58.50
2023-05-23T02:10:14.015Z,58.70
2023-05-23T02:11:47.400Z,58.70
2023-05-23T02:13:20.541Z,58.70
2023-05-23T02:14:55.671Z,58.60
2023-05-23T02:16:27.873Z,58.60
2023-05-23T02:18:02.065Z,58.50
2023-05-23T02:19:35.343Z,58.70
2023-05-23T02:21:08.606Z,58.70
2023-05-23T02:22:43.911Z,58.80
2023-05-23T02:24:17.072Z,58.80
2023-05-23T02:25:51.702Z,58.80
2023-05-23T02:27:25.306Z,58.90
2023-05-23T02:28:57.832Z,59.00
2023-05-23T02:30:32.644Z,59.20
2023-05-23T02:32:05.528Z,59.20
2023-05-23T02:33:38.716Z,59.20
2023-05-23T02:35:12.916Z,59.20
2023-05-23T02:36:46.132Z,59.30
2023-05-23T02:38:20.761Z,59.20
2023-05-23T02:39:53.050Z,59.20
2023-05-23T02:41:26.922Z,59.00
2023-05-23T02:43:00.053Z,59.10
2023-05-23T02:44:33.163Z,59.10
2023-05-23T02:46:06.813Z,59.10
2023-05-23T02:47:40.022Z,59.00
2023-05-23T02:49:15.250Z,59.10
2023-05-23T02:50:47.764Z,59.10
2023-05-23T02:52:21.033Z,59.10
2023-05-23T02:53:54.222Z,59.20
2023-05-23T02:55:31.972Z,59.30
2023-05-23T02:57:06.415Z,59.50
2023-05-23T02:58:42.929Z,59.50
2023-05-23T03:00:16.768Z,59.70
2023-05-23T03:01:56.244Z,59.90
2023-05-23T03:03:31.537Z,59.90
2023-05-23T03:05:07.100Z,59.90
2023-05-23T03:06:42.254Z,60.00
2023-05-23T03:08:15.690Z,60.00
2023-05-23T03:09:48.003Z,59.90
2023-05-23T03:11:22.762Z,60.00
2023-05-23T03:12:55.950Z,59.90
2023-05-23T03:14:29.267Z,60.40
2023-05-23T03:16:03.075Z,60.20
2023-05-23T03:17:37.863Z,60.70
2023-05-23T03:19:11.166Z,61.50
2023-05-23T03:20:44.638Z,61.00
2023-05-23T03:22:17.105Z,60.40
2023-05-23T03:23:50.532Z,60.60
2023-05-23T03:25:23.795Z,60.60
2023-05-23T03:26:56.286Z,60.70
2023-05-23T03:28:30.239Z,60.90
2023-05-23T03:30:04.367Z,61.10
2023-05-23T03:31:38.056Z,61.50
2023-05-23T03:33:13.065Z,61.20
2023-05-23T03:34:46.428Z,61.10
2023-05-23T03:36:19.730Z,61.30
2023-05-23T03:37:53.010Z,61.50
2023-05-23T03:39:25.485Z,61.50
2023-05-23T03:40:58.912Z,61.70
2023-05-23T03:42:32.410Z,61.80
2023-05-23T03:44:05.688Z,61.90
2023-05-23T03:45:39.297Z,61.90
2023-05-23T03:47:18.466Z,61.90
2023-05-23T03:48:52.248Z,61.80
2023-05-23T03:50:26.022Z,61.90
2023-05-23T03:51:59.370Z,61.80
2023-05-23T03:53:34.381Z,61.90
2023-05-23T03:55:11.422Z,62.20
2023-05-23T03:56:45.232Z,62.40
2023-05-23T03:58:18.580Z,62.60
2023-05-23T03:59:56.393Z,62.80
2023-05-23T04:01:29.852Z,62.70
2023-05-23T04:03:03.536Z,62.80
2023-05-23T04:04:39.728Z,63.00
2023-05-23T04:06:14.393Z,63.20
2023-05-23T04:07:51.652Z,63.20
2023-05-23T04:09:24.681Z,63.30
2023-05-23T04:10:58.287Z,63.30
2023-05-23T04:12:32.639Z,63.30
2023-05-23T04:14:06.251Z,63.20
2023-05-23T04:15:39.949Z,63.00
2023-05-23T04:17:16.507Z,62.90
2023-05-23T04:18:50.254Z,62.90
2023-05-23T04:20:25.273Z,63.20
2023-05-23T04:21:58.496Z,62.80
2023-05-23T04:23:32.150Z,62.70
2023-05-23T04:25:07.252Z,62.70
2023-05-23T04:26:45.390Z,62.90
2023-05-23T04:28:18.805Z,62.70
2023-05-23T04:29:52.467Z,62.50
2023-05-23T04:31:26.911Z,62.30
2023-05-23T04:33:00.928Z,62.30
2023-05-23T04:34:35.636Z,62.20
2023-05-23T04:36:10.949Z,62.30
2023-05-23T04:37:46.956Z,62.50
2023-05-23T04:39:20.309Z,62.50
2023-05-23T04:41:16.194Z,62.60
2023-05-23T04:43:10.172Z,62.30
2023-05-23T04:45:11.331Z,62.20
2023-05-23T04:46:58.988Z,62.30
2023-05-23T04:48:39.019Z,62.50
2023-05-23T04:50:12.759Z,62.60
2023-05-23T04:51:47.209Z,62.40
2023-05-23T04:53:27.249Z,62.60
2023-05-23T04:55:01.839Z,62.60
2023-05-23T04:56:35.427Z,62.70
2023-05-23T04:58:08.626Z,63.00
2023-05-23T04:59:43.066Z,63.10
2023-05-23T05:01:16.845Z,63.40
2023-05-23T05:02:50.101Z,63.60
2023-05-23T05:04:23.905Z,63.60
2023-05-23T05:05:57.832Z,63.60
2023-05-23T05:07:32.376Z,63.60
2023-05-23T05:09:07.967Z,63.50
2023-05-23T05:10:42.337Z,63.50
2023-05-23T05:12:17.042Z,64.10
2023-05-23T05:13:50.294Z,63.20
2023-05-23T05:15:23.617Z,63.50
2023-05-23T05:17:02.639Z,63.10
2023-05-23T05:18:42.748Z,62.90
2023-05-23T05:20:16.804Z,63.00
2023-05-23T05:21:50.042Z,63.10
2023-05-23T05:23:29.374Z,63.30
2023-05-23T05:25:03.490Z,63.70
2023-05-23T05:26:37.520Z,63.50
2023-05-23T05:28:11.502Z,63.50
2023-05-23T05:29:50.032Z,63.30
2023-05-23T05:31:23.527Z,63.40
2023-05-23T05:32:58.041Z,63.50
2023-05-23T05:34:31.375Z,63.50
2023-05-23T05:36:07.177Z,63.50
2023-05-23T05:37:40.369Z,63.60
2023-05-23T05:39:15.951Z,63.60
2023-05-23T05:40:49.181Z,63.70
2023-05-23T05:42:23.527Z,63.60
2023-05-23T05:43:56.960Z,63.60
2023-05-23T05:45:30.110Z,63.80
2023-05-23T05:47:03.607Z,63.90
2023-05-23T05:48:37.392Z,64.10
2023-05-23T05:50:14.039Z,64.00
2023-05-23T05:51:47.222Z,63.70
2023-05-23T05:53:20.400Z,63.70
2023-05-23T05:54:57.617Z,63.40
2023-05-23T05:56:30.850Z,63.50
2023-05-23T05:58:04.722Z,63.60
2023-05-23T05:59:49.005Z,63.60
2023-05-23T06:01:22.307Z,63.50
2023-05-23T06:02:57.487Z,63.60
2023-05-23T06:04:53.380Z,63.70
2023-05-23T06:06:26.788Z,63.70
2023-05-23T06:08:00.274Z,63.70
2023-05-23T06:09:33.731Z,63.50
2023-05-23T06:11:08.594Z,63.40
2023-05-23T06:12:41.916Z,63.70
2023-05-23T06:14:15.056Z,63.60
2023-05-23T06:15:51.840Z,63.70
2023-05-23T06:17:25.828Z,63.50
2023-05-23T06:18:59.048Z,63.50
2023-05-23T06:20:35.064Z,63.60
2023-05-23T06:22:11.371Z,63.60
2023-05-23T06:23:44.700Z,63.40
2023-05-23T06:25:18.130Z,63.50
2023-05-23T06:26:54.768Z,63.50
2023-05-23T06:28:27.905Z,63.50
2023-05-23T06:30:01.093Z,63.40
2023-05-23T06:31:35.944Z,63.50
2023-05-23T06:33:09.258Z,63.60
2023-05-23T06:34:42.538Z,63.50
2023-05-23T06:36:16.285Z,63.50
2023-05-23T06:37:49.536Z,63.70
2023-05-23T06:39:22.651Z,63.70
2023-05-23T06:40:56.017Z,63.60
2023-05-23T06:42:30.824Z,63.50
2023-05-23T06:44:16.791Z,63.50
2023-05-23T06:45:50.196Z,63.50
2023-05-23T06:47:23.755Z,63.40
2023-05-23T06:49:10.731Z,63.40
2023-05-23T06:50:48.053Z,63.20
2023-05-23T06:52:21.631Z,63.10
2023-05-23T06:53:56.457Z,63.00
2023-05-23T06:55:30.308Z,62.90
2023-05-23T06:57:04.593Z,63.10
2023-05-23T06:58:39.771Z,62.80
2023-05-23T07:00:14.893Z,62.60
2023-05-23T07:02:01.477Z,62.70
2023-05-23T07:03:35.202Z,62.60
2023-05-23T07:05:12.112Z,62.70
2023-05-23T07:06:54.353Z,62.80
2023-05-23T07:08:28.046Z,62.90
2023-05-23T07:10:09.976Z,63.00
2023-05-23T07:11:43.180Z,63.00
2023-05-23T07:13:16.943Z,63.20
2023-05-23T07:14:51.754Z,63.30
2023-05-23T07:16:26.535Z,63.40
2023-05-23T07:18:07.358Z,63.50
2023-05-23T07:19:41.276Z,63.50
2023-05-23T07:21:14.445Z,63.60
2023-05-23T07:22:47.647Z,63.50
2023-05-23T07:24:23.844Z,64.40
2023-05-23T07:26:02.463Z,63.90
2023-05-23T07:28:02.711Z,64.00
2023-05-23T07:29:35.917Z,63.80
2023-05-23T07:31:10.529Z,63.60
2023-05-23T07:32:44.887Z,63.70
2023-05-23T07:34:20.839Z,63.50
2023-05-23T07:36:11.960Z,63.50
2023-05-23T07:37:45.432Z,63.70
2023-05-23T07:39:24.121Z,63.70
2023-05-23T07:41:09.906Z,64.60
2023-05-23T07:42:44.650Z,63.70
2023-05-23T07:44:20.726Z,63.70
2023-05-23T07:45:55.669Z,63.70
2023-05-23T07:47:30.419Z,63.80
2023-05-23T07:49:03.846Z,63.90
2023-05-23T07:50:37.201Z,63.70
2023-05-23T07:52:12.482Z,63.60
2023-05-23T07:53:45.752Z,63.50
2023-05-23T07:55:19.701Z,63.70
2023-05-23T07:56:54.038Z,63.70
2023-05-23T07:58:27.269Z,63.60
2023-05-23T08:00:00.480Z,63.50
2023-05-23T08:01:36.552Z,63.60
2023-05-23T08:03:13.599Z,63.70
2023-05-23T08:04:59.661Z,63.50
2023-05-23T08:06:33.566Z,63.60
2023-05-23T08:08:11.174Z,63.40
2023-05-23T08:10:03.274Z,63.40
2023-05-23T08:11:55.327Z,63.40
2023-05-23T08:13:30.058Z,63.10
2023-05-23T08:15:38.404Z,63.00
2023-05-23T08:17:21.792Z,62.90
2023-05-23T08:18:56.450Z,63.60
2023-05-23T08:20:33.376Z,62.70
2023-05-23T08:22:06.882Z,62.90
2023-05-23T08:23:40.108Z,63.00
2023-05-23T08:25:13.399Z,63.00
2023-05-23T08:26:47.626Z,63.00
2023-05-23T08:28:22.078Z,62.80
2023-05-23T08:30:00.085Z,62.80
2023-05-23T08:31:36.616Z,62.60
2023-05-23T08:33:11.332Z,62.50
2023-05-23T08:34:46.915Z,62.40
2023-05-23T08:36:20.292Z,62.70
2023-05-23T08:37:58.160Z,62.30
2023-05-23T08:39:32.095Z,62.40
2023-05-23T08:41:24.825Z,62.50
2023-05-23T08:43:04.050Z,63.30
2023-05-23T08:44:37.987Z,62.70
2023-05-23T08:46:13.432Z,62.70
2023-05-23T08:47:48.276Z,62.70
2023-05-23T08:49:24.360Z,62.70
2023-05-23T08:51:00.895Z,62.70
2023-05-23T08:52:38.139Z,62.70
2023-05-23T08:54:13.117Z,62.70
2023-05-23T08:55:47.445Z,62.30
2023-05-23T08:57:20.981Z,62.10
2023-05-23T08:58:59.937Z,62.10
2023-05-23T09:00:35.458Z,62.00
2023-05-23T09:02:13.046Z,62.10
2023-05-23T09:03:46.458Z,62.40
2023-05-23T09:05:30.767Z,62.30
2023-05-23T09:07:06.501Z,62.00
2023-05-23T09:08:40.113Z,61.90
2023-05-23T09:10:17.001Z,61.90
2023-05-23T09:11:52.328Z,62.20
2023-05-23T09:13:25.808Z,62.10
2023-05-23T09:15:00.402Z,62.10
2023-05-23T09:16:35.781Z,62.10
2023-05-23T09:18:14.990Z,62.20
2023-05-23T09:19:48.886Z,62.40
2023-05-23T09:21:33.716Z,62.10
2023-05-23T09:23:14.188Z,61.90
2023-05-23T09:24:47.735Z,61.80
2023-05-23T09:26:22.167Z,61.80
2023-05-23T09:27:56.635Z,62.00
2023-05-23T09:29:31.506Z,62.00
2023-05-23T09:31:07.579Z,61.90
2023-05-23T09:32:42.502Z,61.70
2023-05-23T09:34:15.731Z,61.50
2023-05-23T09:35:48.940Z,61.50
2023-05-23T09:37:24.417Z,61.40
2023-05-23T09:39:03.774Z,61.40
2023-05-23T09:40:36.988Z,61.40
2023-05-23T09:42:10.923Z,61.30
2023-05-23T09:43:52.235Z,61.40
2023-05-23T09:45:31.906Z,61.50
2023-05-23T09:47:08.452Z,61.20
2023-05-23T09:48:41.586Z,61.20
2023-05-23T09:50:15.134Z,61.10
2023-05-23T09:51:59.474Z,61.10
2023-05-23T09:53:32.829Z,61.50
2023-05-23T09:55:09.417Z,61.30
2023-05-23T09:56:44.970Z,61.40
2023-05-23T09:58:20.630Z,61.20
2023-05-23T09:59:55.301Z,61.20
2023-05-23T10:01:31.353Z,61.20
2023-05-23T10:03:12.796Z,61.20
2023-05-23T10:04:46.542Z,61.20
2023-05-23T10:06:27.763Z,61.20
2023-05-23T10:08:03.577Z,61.10
2023-05-23T10:09:41.532Z,60.70
2023-05-23T10:12:11.173Z,60.70
2023-05-23T10:13:49.588Z,60.70
2023-05-23T10:15:27.360Z,60.70
2023-05-23T10:17:10.440Z,60.70
2023-05-23T10:18:46.742Z,60.60
2023-05-23T10:20:29.426Z,60.50
2023-05-23T10:22:07.381Z,60.60
2023-05-23T10:23:41.929Z,60.50
2023-05-23T10:25:16.008Z,60.50
2023-05-23T10:26:50.159Z,60.50
2023-05-23T10:28:24.582Z,60.60
2023-05-23T10:30:00.353Z,60.50
2023-05-23T10:31:34.467Z,60.50
2023-05-23T10:33:09.534Z,60.30
2023-05-23T10:34:55.152Z,60.50
2023-05-23T10:36:38.633Z,60.40
2023-05-23T10:38:27.348Z,60.40
2023-05-23T10:40:08.775Z,60.40
2023-05-23T10:41:50.077Z,60.40
2023-05-23T10:43:32.100Z,60.30
2023-05-23T10:45:21.593Z,60.70
2023-05-23T10:46:58.371Z,61.00
2023-05-23T10:48:36.910Z,61.00
2023-05-23T10:50:14.737Z,61.00
2023-05-23T10:51:51.490Z,61.00
2023-05-23T10:53:24.866Z,60.90
2023-05-23T10:54:57.991Z,60.70
2023-05-23T10:56:33.184Z,60.40
2023-05-23T10:58:16.785Z,60.40
2023-05-23T10:59:52.402Z,60.70
2023-05-23T11:01:28.569Z,60.50
2023-05-23T11:03:02.543Z,60.60
2023-05-23T11:04:36.118Z,60.60
2023-05-23T11:06:32.726Z,60.50
2023-05-23T11:08:10.988Z,60.60
2023-05-23T11:10:06.094Z,60.40
2023-05-23T11:12:05.050Z,60.10
2023-05-23T11:14:01.046Z,60.00
2023-05-23T11:15:45.669Z,59.80
2023-05-23T11:17:32.537Z,59.90
2023-05-23T11:19:27.844Z,59.50
2023-05-23T11:21:04.108Z,59.30
2023-05-23T11:22:37.896Z,59.40
2023-05-23T11:24:11.570Z,59.40
2023-05-23T11:25:48.728Z,59.40
2023-05-23T11:27:29.252Z,59.30
2023-05-23T11:29:03.933Z,59.20
2023-05-23T11:30:38.312Z,59.10
2023-05-23T11:32:17.288Z,59.30
2023-05-23T11:33:53.634Z,59.20
2023-05-23T11:35:27.699Z,59.20
2023-05-23T11:37:01.714Z,59.10
2023-05-23T11:38:35.575Z,59.00
2023-05-23T11:40:30.008Z,59.00
2023-05-23T11:42:04.538Z,58.90
2023-05-23T11:43:37.748Z,58.90
2023-05-23T11:45:11.417Z,58.70
2023-05-23T11:47:01.952Z,58.60
2023-05-23T11:48:35.138Z,58.50
2023-05-23T11:50:11.628Z,58.70
2023-05-23T11:51:44.989Z,58.80
2023-05-23T11:53:21.477Z,59.00
2023-05-23T11:54:56.478Z,59.10
2023-05-23T11:56:31.389Z,59.30
2023-05-23T11:58:04.617Z,59.40
2023-05-23T11:59:38.999Z,59.30
2023-05-23T12:01:14.485Z,59.30
2023-05-23T12:02:48.993Z,59.10
2023-05-23T12:04:23.106Z,59.10
2023-05-23T12:05:58.588Z,59.00
2023-05-23T12:07:36.722Z,58.60
2023-05-23T12:09:12.896Z,58.60
2023-05-23T12:10:54.685Z,58.60
2023-05-23T12:12:29.471Z,58.40
2023-05-23T12:14:06.375Z,58.30
2023-05-23T12:15:40.975Z,58.20
2023-05-23T12:17:14.725Z,57.80
2023-05-23T12:18:48.525Z,57.70
2023-05-23T12:20:22.343Z,57.70
2023-05-23T12:21:57.013Z,57.50
2023-05-23T12:23:33.112Z,57.30
2023-05-23T12:25:11.100Z,57.40
2023-05-23T12:26:55.317Z,57.30
2023-05-23T12:28:38.306Z,57.40
2023-05-23T12:30:16.060Z,57.00
2023-05-23T12:31:53.352Z,57.20
2023-05-23T12:33:26.775Z,57.00
2023-05-23T12:35:00.221Z,57.10
2023-05-23T12:36:35.166Z,57.00
2023-05-23T12:38:18.201Z,56.90
2023-05-23T12:39:51.472Z,56.70
2023-05-23T12:41:24.632Z,56.80
2023-05-23T12:42:58.613Z,56.60
2023-05-23T12:44:32.008Z,56.10
2023-05-23T12:46:07.899Z,56.10
2023-05-23T12:47:41.050Z,56.30
2023-05-23T12:49:14.258Z,56.20
2023-05-23T12:50:47.600Z,56.40
2023-05-23T12:52:20.994Z,56.30
2023-05-23T12:53:56.550Z,56.10
2023-05-23T12:55:29.738Z,56.00
2023-05-23T12:57:02.906Z,56.10
2023-05-23T12:58:36.028Z,55.80
2023-05-23T13:00:11.709Z,56.00
2023-05-23T13:01:44.996Z,56.00
2023-05-23T13:03:18.450Z,56.00
2023-05-23T13:04:51.658Z,55.80
2023-05-23T13:06:24.838Z,55.80
2023-05-23T13:07:59.704Z,55.80
2023-05-23T13:09:34.232Z,55.50
2023-05-23T13:11:07.370Z,55.40
2023-05-23T13:12:40.719Z,55.30
2023-05-23T13:14:14.071Z,55.80
2023-05-23T13:15:48.280Z,55.10
2023-05-23T13:17:23.813Z,55.30
2023-05-23T13:18:57.270Z,55.10
2023-05-23T13:20:30.883Z,54.80
2023-05-23T13:22:04.495Z,54.70
2023-05-23T13:23:39.129Z,54.20
2023-05-23T13:25:14.087Z,53.70
2023-05-23T13:26:47.252Z,53.40
2023-05-23T13:28:20.537Z,53.50
2023-05-23T13:29:53.908Z,53.50
2023-05-23T13:31:27.498Z,53.40
2023-05-23T13:33:02.410Z,53.40
2023-05-23T13:34:37.419Z,52.80
2023-05-23T13:36:10.687Z,52.80
2023-05-23T13:37:44.165Z,52.90
2023-05-23T13:39:19.713Z,52.90
2023-05-23T13:41:04.059Z,52.60
2023-05-23T13:42:37.300Z,51.60
2023-05-23T13:44:10.502Z,52.00
2023-05-23T13:45:43.642Z,51.70
2023-05-23T13:47:17.248Z,51.60
2023-05-23T13:48:50.603Z,51.50
2023-05-23T13:50:23.857Z,51.50
2023-05-23T13:51:57.092Z,51.40
2023-05-23T13:53:30.283Z,51.80
2023-05-23T13:55:04.545Z,51.60
2023-05-23T13:56:40.319Z,51.10
2023-05-23T13:58:13.927Z,50.60
2023-05-23T13:59:47.114Z,50.40
2023-05-23T14:01:20.321Z,49.90
2023-05-23T14:02:53.533Z,49.40
2023-05-23T14:04:26.937Z,49.40
2023-05-23T14:06:00.044Z,49.40
2023-05-23T14:07:33.427Z,49.20
2023-05-23T14:09:07.715Z,48.80
2023-05-23T14:10:41.273Z,48.60
2023-05-23T14:12:16.209Z,48.60
2023-05-23T14:13:49.206Z,48.50
2023-05-23T14:15:22.569Z,48.50
2023-05-23T14:16:55.812Z,48.80
2023-05-23T14:18:29.042Z,48.30
2023-05-23T14:20:02.297Z,48.00
2023-05-23T14:21:36.243Z,47.80
2023-05-23T14:23:09.491Z,47.50
2023-05-23T14:24:42.679Z,47.40
2023-05-23T14:26:16.180Z,47.50
2023-05-23T14:27:50.718Z,47.50
2023-05-23T14:29:23.832Z,47.20
2023-05-23T14:30:57.468Z,47.00
2023-05-23T14:32:33.254Z,47.10
2023-05-23T14:34:06.914Z,47.40
2023-05-23T14:35:40.488Z,47.20
2023-05-23T14:37:12.870Z,47.50
2023-05-23T14:38:46.501Z,46.70
2023-05-23T14:40:20.009Z,46.80
2023-05-23T14:41:53.292Z,46.40
2023-05-23T14:43:27.915Z,46.40
2023-05-23T14:45:01.226Z,46.30
2023-05-23T14:46:34.491Z,46.10
2023-05-23T14:48:08.024Z,46.10
2023-05-23T14:49:41.240Z,46.90
2023-05-23T14:51:24.107Z,46.40
2023-05-23T14:53:03.991Z,46.20
2023-05-23T14:54:37.094Z,46.10
2023-05-23T14:56:20.967Z,46.00
2023-05-23T14:57:54.520Z,45.50
2023-05-23T14:59:29.841Z,45.90
2023-05-23T15:01:04.692Z,46.00
2023-05-23T15:02:38.028Z,45.40
2023-05-23T15:04:11.418Z,45.80
2023-05-23T15:05:48.434Z,45.90
2023-05-23T15:07:22.364Z,45.70
2023-05-23T15:08:56.694Z,45.70
2023-05-23T15:10:29.825Z,45.80
2023-05-23T15:12:05.165Z,45.70
2023-05-23T15:13:38.297Z,45.60
2023-05-23T15:15:13.357Z,45.80
2023-05-23T15:16:48.779Z,45.60
2023-05-23T15:18:39.038Z,45.60
2023-05-23T15:20:13.774Z,45.80
2023-05-23T15:21:51.069Z,46.20
2023-05-23T15:23:24.838Z,46.70
2023-05-23T15:25:01.535Z,46.10
2023-05-23T15:26:35.052Z,46.00
2023-05-23T15:28:08.216Z,45.80
2023-05-23T15:29:41.478Z,45.70
2023-05-23T15:31:16.251Z,45.10
2023-05-23T15:32:49.730Z,45.00
2023-05-23T15:34:23.383Z,44.90
2023-05-23T15:35:58.773Z,45.20
2023-05-23T15:37:31.926Z,44.90
2023-05-23T15:39:06.063Z,45.00
2023-05-23T15:40:39.459Z,44.90
2023-05-23T15:42:12.766Z,44.70
2023-05-23T15:43:46.029Z,45.00
2023-05-23T15:45:19.262Z,44.50
2023-05-23T15:46:53.900Z,44.00
2023-05-23T15:48:27.043Z,43.60
2023-05-23T15:50:00.412Z,43.40
2023-05-23T15:51:33.790Z,43.80
2023-05-23T15:53:06.999Z,43.30
2023-05-23T15:54:40.428Z,43.10
2023-05-23T15:56:15.627Z,43.00
2023-05-23T15:57:48.820Z,42.80
2023-05-23T15:59:22.062Z,43.00
2023-05-23T16:00:55.290Z,43.00
2023-05-23T16:02:29.977Z,43.10
2023-05-23T16:04:03.052Z,42.90
2023-05-23T16:05:36.259Z,42.80
2023-05-23T16:07:09.460Z,43.10
2023-05-23T16:08:42.663Z,42.70
2023-05-23T16:10:15.932Z,42.60
2023-05-23T16:11:49.174Z,42.20
2023-05-23T16:13:22.372Z,42.20
2023-05-23T16:14:55.733Z,41.90
2023-05-23T16:16:28.987Z,41.60
2023-05-23T16:18:04.080Z,41.50
2023-05-23T16:19:37.282Z,41.40
2023-05-23T16:21:10.428Z,41.40
2023-05-23T16:22:43.540Z,41.30
2023-05-23T16:24:17.020Z,41.20
2023-05-23T16:25:50.326Z,41.30
2023-05-23T16:27:23.812Z,41.20
2023-05-23T16:28:56.962Z,41.20
2023-05-23T16:30:30.064Z,41.30
2023-05-23T16:32:03.311Z,41.30
2023-05-23T16:33:37.939Z,41.80
2023-05-23T16:35:11.917Z,41.80
2023-05-23T16:36:45.088Z,41.60
2023-05-23T16:38:18.317Z,41.60
2023-05-23T16:39:51.656Z,41.60
2023-05-23T16:41:25.137Z,41.60
2023-05-23T16:42:58.360Z,41.60
2023-05-23T16:44:31.563Z,41.40
2023-05-23T16:46:05.577Z,41.10
2023-05-23T16:47:38.779Z,41.10
2023-05-23T16:49:13.395Z,41.30
2023-05-23T16:50:46.535Z,41.30
2023-05-23T16:52:19.777Z,41.40
2023-05-23T16:53:53.065Z,41.20
2023-05-23T16:55:26.352Z,41.40
2023-05-23T16:57:01.697Z,41.40
2023-05-23T16:58:38.400Z,41.40
2023-05-23T17:00:13.472Z,41.40
2023-05-23T17:01:46.864Z,41.60
2023-05-23T17:03:21.329Z,41.90
2023-05-23T17:04:56.193Z,42.00
2023-05-23T17:06:29.637Z,41.90
2023-05-23T17:08:03.150Z,42.00
2023-05-23T17:09:36.534Z,42.60
2023-05-23T17:11:09.702Z,41.70
2023-05-23T17:12:42.805Z,41.70
2023-05-23T17:14:16.104Z,41.90
2023-05-23T17:15:49.491Z,42.00
2023-05-23T17:17:22.735Z,42.10
2023-05-23T17:18:56.701Z,42.20
2023-05-23T17:20:31.235Z,42.10
2023-05-23T17:22:06.873Z,42.30
2023-05-23T17:23:40.807Z,42.30
2023-05-23T17:25:13.944Z,42.30
2023-05-23T17:26:47.259Z,42.30
2023-05-23T17:28:20.481Z,42.20
2023-05-23T17:29:53.691Z,42.10
2023-05-23T17:31:29.621Z,42.20
2023-05-23T17:33:03.944Z,42.00
2023-05-23T17:34:37.486Z,42.20
2023-05-23T17:36:12.682Z,42.20
2023-05-23T17:37:45.852Z,42.20
2023-05-23T17:39:19.304Z,42.20
2023-05-23T17:40:52.753Z,42.20
2023-05-23T17:42:26.259Z,42.10
2023-05-23T17:44:01.710Z,42.20
2023-05-23T17:45:36.031Z,42.20
2023-05-23T17:47:09.439Z,42.40
2023-05-23T17:48:47.805Z,42.30
2023-05-23T17:50:22.744Z,42.10
2023-05-23T17:51:57.628Z,42.10
2023-05-23T17:53:31.162Z,42.10
2023-05-23T17:55:04.770Z,42.50
2023-05-23T17:56:37.962Z,42.30
2023-05-23T17:58:11.153Z,42.30
2023-05-23T17:59:44.436Z,42.30
2023-05-23T18:01:18.036Z,42.30
2023-05-23T18:02:51.850Z,42.40
2023-05-23T18:04:25.727Z,42.20
2023-05-23T18:05:59.020Z,42.00
2023-05-23T18:07:33.558Z,42.00
2023-05-23T18:09:06.889Z,42.10
2023-05-23T18:10:44.347Z,42.30
2023-05-23T18:12:18.073Z,42.30
2023-05-23T18:13:51.534Z,42.20
2023-05-23T18:15:25.588Z,42.00
2023-05-23T18:16:58.828Z,41.90
2023-05-23T18:18:32.313Z,41.90
2023-05-23T18:20:07.402Z,41.90
2023-05-23T18:21:40.828Z,41.70
2023-05-23T18:23:15.573Z,41.50
2023-05-23T18:24:48.549Z,41.60
2023-05-23T18:26:21.671Z,41.70
2023-05-23T18:27:56.022Z,41.70
2023-05-23T18:29:29.216Z,41.70
2023-05-23T18:31:04.384Z,41.90
2023-05-23T18:32:37.777Z,42.00
2023-05-23T18:34:11.116Z,41.90
2023-05-23T18:35:44.813Z,42.00
2023-05-23T18:37:18.573Z,42.00
2023-05-23T18:38:55.676Z,42.10
2023-05-23T18:40:29.407Z,41.90
2023-05-23T18:42:02.593Z,41.80
2023-05-23T18:43:36.577Z,41.70
2023-05-23T18:45:11.670Z,41.90
2023-05-23T18:46:44.912Z,42.00
2023-05-23T18:48:18.212Z,42.40
2023-05-23T18:49:52.239Z,42.60
2023-05-23T18:51:25.433Z,42.40
2023-05-23T18:52:58.916Z,42.70
2023-05-23T18:54:36.117Z,43.00
2023-05-23T18:56:09.539Z,43.10
2023-05-23T18:57:43.071Z,43.20
2023-05-23T18:59:16.885Z,43.50
2023-05-23T19:00:50.179Z,43.80
2023-05-23T19:02:23.373Z,43.80
2023-05-23T19:03:57.633Z,43.80
2023-05-23T19:05:31.311Z,43.70
2023-05-23T19:07:04.712Z,43.80
2023-05-23T19:08:37.994Z,44.10
2023-05-23T19:10:13.307Z,44.20
2023-05-23T19:11:46.816Z,44.20
2023-05-23T19:13:20.714Z,44.20
2023-05-23T19:14:54.447Z,44.20
2023-05-23T19:16:27.865Z,44.20
2023-05-23T19:18:01.405Z,43.80
2023-05-23T19:19:35.666Z,43.80
2023-05-23T19:21:10.053Z,44.10
2023-05-23T19:22:51.900Z,44.10
2023-05-23T19:24:26.283Z,44.30
2023-05-23T19:26:00.970Z,44.30
2023-05-23T19:27:34.144Z,44.50
2023-05-23T19:29:08.797Z,44.60
2023-05-23T19:30:42.445Z,44.80
2023-05-23T19:32:16.537Z,45.10
2023-05-23T19:33:50.137Z,45.10
2023-05-23T19:35:23.919Z,45.40
2023-05-23T19:36:57.839Z,45.60
2023-05-23T19:38:31.198Z,45.60
2023-05-23T19:40:05.341Z,45.50
2023-05-23T19:41:40.146Z,45.70
2023-05-23T19:43:13.429Z,45.90
2023-05-23T19:44:45.760Z,46.00
2023-05-23T19:46:19.209Z,46.20
2023-05-23T19:47:52.614Z,46.20
2023-05-23T19:49:26.140Z,46.10
2023-05-23T19:50:59.316Z,46.30
2023-05-23T19:52:32.579Z,46.50
2023-05-23T19:54:06.019Z,46.30
2023-05-23T19:55:39.797Z,46.30
2023-05-23T19:57:14.330Z,46.60
2023-05-23T19:58:47.521Z,46.70
2023-05-23T20:00:21.469Z,46.60
2023-05-23T20:01:54.686Z,46.90
2023-05-23T20:03:28.146Z,47.10
2023-05-23T20:05:01.386Z,47.20
2023-05-23T20:06:34.616Z,47.30
2023-05-23T20:08:07.982Z,47.50
2023-05-23T20:09:41.348Z,47.60
2023-05-23T20:11:14.528Z,47.70
2023-05-23T20:12:49.367Z,47.80
2023-05-23T20:14:22.392Z,47.90
2023-05-23T20:15:55.773Z,48.20
2023-05-23T20:17:29.945Z,47.80
2023-05-23T20:19:03.235Z,47.80
2023-05-23T20:20:36.478Z,47.90
2023-05-23T20:22:09.651Z,48.10
2023-05-23T20:23:45.050Z,48.20
2023-05-23T20:25:18.639Z,48.20
2023-05-23T20:26:51.841Z,48.30
2023-05-23T20:28:27.310Z,49.10
2023-05-23T20:30:00.825Z,48.60